WMT3502 LIPZ-EPKK
Flight info
| Callsign | WMT3502 |
|---|---|
| Flight time | 1h 12m |
| Altitude | 18000 |
| Route | ROSKA M859 BARPI/N0441F350 DCT LAPNA DCT GOLVA DCT ABLOM DCT MOMEP/N0396F230 M985 MEBAN |
| Aircraft | A320/M-SDE1E2E3FGIJ1J4RWXY/LB1 |
Departure
| Time | 2026-05-04 20:12 |
|---|---|
| Airport | Venice Marco Polo Airport (LIPZ) |
Arrival
| Time | 2026-05-04 21:25 |
|---|---|
| Airport | Kraków John Paul II International Airport (EPKK) |
| Time | Latitude | Longitude | Altitude | Speed | Heading |
|---|---|---|---|---|---|
| 2026-05-04 19:15 | 45.50213 | 12.34105 | 16 ft | 0 kts | 312° |
| 2026-05-04 19:43 | 45.50213 | 12.34106 | 16 ft | 0 kts | 312° |
| 2026-05-04 19:44 | 45.50213 | 12.34105 | 16 ft | 3 kts | 312° |
| 2026-05-04 19:51 | 45.50213 | 12.34106 | 16 ft | 0 kts | 312° |
| 2026-05-04 19:51 | 45.50213 | 12.34105 | 17 ft | 3 kts | 312° |
| 2026-05-04 20:04 | 45.50202 | 12.34123 | 43 ft | 4 kts | 309° |
| 2026-05-04 20:05 | 45.50186 | 12.34154 | 24 ft | 4 kts | 298° |
| 2026-05-04 20:05 | 45.50177 | 12.34188 | 16 ft | 4 kts | 265° |
| 2026-05-04 20:05 | 45.50182 | 12.34209 | 16 ft | 0 kts | 222° |
| 2026-05-04 20:09 | 45.50176 | 12.34201 | 16 ft | 5 kts | 221° |
| 2026-05-04 20:09 | 45.50113 | 12.34121 | 16 ft | 11 kts | 224° |
| 2026-05-04 20:09 | 45.50046 | 12.34058 | 15 ft | 13 kts | 188° |
| 2026-05-04 20:10 | 45.49943 | 12.34063 | 14 ft | 17 kts | 178° |
| 2026-05-04 20:10 | 45.49874 | 12.34017 | 15 ft | 18 kts | 221° |
| 2026-05-04 20:10 | 45.49774 | 12.33890 | 14 ft | 20 kts | 221° |
| 2026-05-04 20:10 | 45.49630 | 12.33701 | 16 ft | 23 kts | 221° |
| 2026-05-04 20:11 | 45.49520 | 12.33597 | 17 ft | 14 kts | 167° |
| 2026-05-04 20:11 | 45.49467 | 12.33667 | 16 ft | 17 kts | 133° |
| 2026-05-04 20:11 | 45.49430 | 12.33792 | 17 ft | 11 kts | 60° |
| 2026-05-04 20:11 | 45.49496 | 12.33877 | 14 ft | 15 kts | 42° |
| 2026-05-04 20:12 | 45.49668 | 12.34100 | 13 ft | 66 kts | 41° |
| 2026-05-04 20:12 | 45.50182 | 12.34762 | 15 ft | 129 kts | 43° |
| 2026-05-04 20:12 | 45.51257 | 12.36136 | 265 ft | 167 kts | 41° |
| 2026-05-04 20:12 | 45.51838 | 12.36847 | 757 ft | 166 kts | 40° |
| 2026-05-04 20:13 | 45.52757 | 12.37886 | 1363 ft | 175 kts | 38° |
| 2026-05-04 20:13 | 45.53598 | 12.39246 | 1660 ft | 194 kts | 72° |
| 2026-05-04 20:13 | 45.53735 | 12.41211 | 2015 ft | 210 kts | 103° |
| 2026-05-04 20:13 | 45.53426 | 12.43268 | 2754 ft | 214 kts | 103° |
| 2026-05-04 20:14 | 45.53209 | 12.45398 | 3429 ft | 227 kts | 90° |
| 2026-05-04 20:14 | 45.53306 | 12.47764 | 3859 ft | 251 kts | 87° |
| 2026-05-04 20:14 | 45.53446 | 12.50362 | 4436 ft | 270 kts | 86° |
| 2026-05-04 20:14 | 45.53599 | 12.53063 | 5352 ft | 275 kts | 86° |
| 2026-05-04 20:15 | 45.53755 | 12.55810 | 6321 ft | 278 kts | 85° |
| 2026-05-04 20:15 | 45.53910 | 12.58542 | 7212 ft | 282 kts | 86° |
| 2026-05-04 20:15 | 45.54064 | 12.61357 | 8060 ft | 287 kts | 86° |
| 2026-05-04 20:15 | 45.54219 | 12.64222 | 8914 ft | 292 kts | 87° |
| 2026-05-04 20:16 | 45.54375 | 12.67147 | 9742 ft | 298 kts | 88° |
| 2026-05-04 20:16 | 45.54532 | 12.70141 | 10375 ft | 311 kts | 88° |
| 2026-05-04 20:16 | 45.54693 | 12.73286 | 10699 ft | 331 kts | 88° |
| 2026-05-04 20:16 | 45.54863 | 12.76601 | 11339 ft | 338 kts | 88° |
| 2026-05-04 20:17 | 45.55039 | 12.79980 | 12106 ft | 341 kts | 89° |
| 2026-05-04 20:17 | 45.55219 | 12.83378 | 12892 ft | 344 kts | 89° |
| 2026-05-04 20:17 | 45.55401 | 12.86800 | 13663 ft | 347 kts | 89° |
| 2026-05-04 20:17 | 45.55581 | 12.90252 | 14357 ft | 350 kts | 89° |
| 2026-05-04 20:18 | 45.55756 | 12.93695 | 15000 ft | 354 kts | 89° |
| 2026-05-04 20:18 | 45.55933 | 12.97223 | 15625 ft | 357 kts | 88° |
| 2026-05-04 20:18 | 45.56111 | 13.00782 | 16260 ft | 361 kts | 88° |
| 2026-05-04 20:18 | 45.56291 | 13.04368 | 16889 ft | 364 kts | 88° |
| 2026-05-04 20:19 | 45.56471 | 13.07992 | 17521 ft | 368 kts | 88° |
| 2026-05-04 20:19 | 45.56651 | 13.11658 | 18157 ft | 372 kts | 87° |
| 2026-05-04 20:19 | 45.56831 | 13.15357 | 18728 ft | 375 kts | 87° |
| 2026-05-04 20:19 | 45.57010 | 13.19046 | 19291 ft | 378 kts | 87° |
| 2026-05-04 20:20 | 45.57190 | 13.22809 | 19871 ft | 382 kts | 87° |
| 2026-05-04 20:20 | 45.57372 | 13.26599 | 20440 ft | 385 kts | 87° |
| 2026-05-04 20:20 | 45.57559 | 13.30433 | 20999 ft | 388 kts | 87° |
| 2026-05-04 20:20 | 45.57749 | 13.34302 | 21541 ft | 390 kts | 87° |
| 2026-05-04 20:21 | 45.57934 | 13.38190 | 22066 ft | 393 kts | 88° |
| 2026-05-04 20:21 | 45.58112 | 13.42049 | 22591 ft | 396 kts | 88° |
| 2026-05-04 20:21 | 45.58713 | 13.49950 | 23592 ft | 404 kts | 77° |
| 2026-05-04 20:22 | 45.59636 | 13.53758 | 24014 ft | 409 kts | 66° |
| 2026-05-04 20:22 | 45.61046 | 13.57306 | 24439 ft | 413 kts | 56° |
| 2026-05-04 20:22 | 45.62695 | 13.60637 | 24848 ft | 416 kts | 55° |
| 2026-05-04 20:22 | 45.64369 | 13.64030 | 25262 ft | 419 kts | 55° |
| 2026-05-04 20:23 | 45.66049 | 13.67455 | 25671 ft | 421 kts | 56° |
| 2026-05-04 20:23 | 45.67736 | 13.70907 | 26083 ft | 424 kts | 56° |
| 2026-05-04 20:23 | 45.69416 | 13.74349 | 26487 ft | 427 kts | 56° |
| 2026-05-04 20:23 | 45.71124 | 13.77854 | 26888 ft | 430 kts | 56° |
| 2026-05-04 20:24 | 45.72846 | 13.81385 | 27298 ft | 433 kts | 56° |
| 2026-05-04 20:24 | 45.74574 | 13.84933 | 27716 ft | 435 kts | 56° |
| 2026-05-04 20:24 | 45.76312 | 13.88503 | 28128 ft | 437 kts | 55° |
| 2026-05-04 20:24 | 45.78032 | 13.92046 | 28523 ft | 439 kts | 55° |
| 2026-05-04 20:25 | 45.79781 | 13.95656 | 28932 ft | 442 kts | 55° |
| 2026-05-04 20:25 | 45.81536 | 13.99279 | 29172 ft | 440 kts | 55° |
| 2026-05-04 20:25 | 45.83281 | 14.02883 | 29303 ft | 437 kts | 55° |
| 2026-05-04 20:25 | 45.85009 | 14.06451 | 29455 ft | 433 kts | 55° |
| 2026-05-04 20:26 | 45.86699 | 14.09951 | 29581 ft | 430 kts | 55° |
| 2026-05-04 20:26 | 45.88399 | 14.13480 | 29710 ft | 427 kts | 55° |
| 2026-05-04 20:26 | 45.90079 | 14.16976 | 29870 ft | 425 kts | 55° |
| 2026-05-04 20:26 | 45.91778 | 14.20510 | 30010 ft | 434 kts | 55° |
| 2026-05-04 20:27 | 45.93512 | 14.24119 | 30153 ft | 442 kts | 55° |
| 2026-05-04 20:27 | 45.95277 | 14.27798 | 30310 ft | 450 kts | 55° |
| 2026-05-04 20:27 | 45.97044 | 14.31487 | 30581 ft | 454 kts | 55° |
| 2026-05-04 20:27 | 45.98847 | 14.35255 | 30901 ft | 457 kts | 55° |
| 2026-05-04 20:28 | 46.00653 | 14.39032 | 31241 ft | 459 kts | 55° |
| 2026-05-04 20:28 | 46.02471 | 14.42832 | 31562 ft | 462 kts | 55° |
| 2026-05-04 20:28 | 46.04289 | 14.46639 | 32033 ft | 460 kts | 55° |
| 2026-05-04 20:28 | 46.06073 | 14.50386 | 32537 ft | 458 kts | 55° |
| 2026-05-04 20:29 | 46.07870 | 14.54167 | 33070 ft | 456 kts | 55° |
| 2026-05-04 20:29 | 46.09663 | 14.57946 | 33552 ft | 455 kts | 55° |
| 2026-05-04 20:29 | 46.11447 | 14.61714 | 34028 ft | 454 kts | 55° |
| 2026-05-04 20:29 | 46.13228 | 14.65481 | 34432 ft | 454 kts | 55° |
| 2026-05-04 20:30 | 46.15009 | 14.69250 | 34826 ft | 453 kts | 55° |
| 2026-05-04 20:30 | 46.16754 | 14.72949 | 35215 ft | 452 kts | 54° |
| 2026-05-04 20:30 | 46.18522 | 14.76697 | 35589 ft | 451 kts | 54° |
| 2026-05-04 20:30 | 46.20287 | 14.80441 | 35961 ft | 450 kts | 54° |
| 2026-05-04 20:31 | 46.22043 | 14.84175 | 36305 ft | 450 kts | 54° |
| 2026-05-04 20:31 | 46.23801 | 14.87915 | 36586 ft | 450 kts | 54° |
| 2026-05-04 20:31 | 46.25559 | 14.91660 | 36926 ft | 449 kts | 54° |
| 2026-05-04 20:31 | 46.27317 | 14.95411 | 37043 ft | 452 kts | 54° |
| 2026-05-04 20:32 | 46.30814 | 15.02895 | 37060 ft | 451 kts | 54° |
| 2026-05-04 20:32 | 46.34333 | 15.10430 | 37054 ft | 450 kts | 54° |
| 2026-05-04 20:33 | 46.37828 | 15.17955 | 37049 ft | 451 kts | 55° |
| 2026-05-04 20:33 | 46.41326 | 15.25516 | 37039 ft | 451 kts | 55° |
| 2026-05-04 20:34 | 46.44804 | 15.33037 | 37034 ft | 451 kts | 55° |
| 2026-05-04 20:34 | 46.48298 | 15.40617 | 37039 ft | 451 kts | 54° |
| 2026-05-04 20:35 | 46.51837 | 15.48085 | 37043 ft | 450 kts | 49° |
| 2026-05-04 20:35 | 46.56465 | 15.54111 | 37055 ft | 444 kts | 30° |
| 2026-05-04 20:36 | 46.61863 | 15.58330 | 37047 ft | 442 kts | 26° |
| 2026-05-04 20:36 | 46.67329 | 15.62489 | 37038 ft | 442 kts | 26° |
| 2026-05-04 20:37 | 46.72615 | 15.66979 | 37040 ft | 443 kts | 33° |
| 2026-05-04 20:37 | 46.77649 | 15.72174 | 37021 ft | 443 kts | 33° |
| 2026-05-04 20:38 | 46.82689 | 15.77357 | 37014 ft | 442 kts | 33° |
| 2026-05-04 20:38 | 46.87723 | 15.82528 | 37010 ft | 442 kts | 33° |
| 2026-05-04 20:39 | 46.92757 | 15.87721 | 37012 ft | 442 kts | 33° |
| 2026-05-04 20:39 | 46.97754 | 15.92898 | 37008 ft | 442 kts | 33° |
| 2026-05-04 20:40 | 47.02779 | 15.98106 | 37005 ft | 442 kts | 33° |
| 2026-05-04 20:40 | 47.07811 | 16.03323 | 37005 ft | 442 kts | 33° |
| 2026-05-04 20:41 | 47.12792 | 16.08514 | 37010 ft | 442 kts | 34° |
| 2026-05-04 20:41 | 47.17807 | 16.13761 | 37002 ft | 442 kts | 34° |
| 2026-05-04 20:42 | 47.22832 | 16.19016 | 37002 ft | 442 kts | 34° |
| 2026-05-04 20:42 | 47.27801 | 16.24225 | 37005 ft | 441 kts | 34° |
| 2026-05-04 20:43 | 47.32814 | 16.29498 | 36996 ft | 441 kts | 33° |
| 2026-05-04 20:43 | 47.37823 | 16.34769 | 36991 ft | 441 kts | 34° |
| 2026-05-04 20:44 | 47.42784 | 16.40016 | 36982 ft | 441 kts | 34° |
| 2026-05-04 20:44 | 47.47779 | 16.45317 | 36984 ft | 441 kts | 34° |
| 2026-05-04 20:45 | 47.52437 | 16.51276 | 36986 ft | 444 kts | 44° |
| 2026-05-04 20:45 | 47.56721 | 16.57863 | 36977 ft | 444 kts | 44° |
| 2026-05-04 20:46 | 47.60977 | 16.64447 | 36976 ft | 444 kts | 44° |
| 2026-05-04 20:46 | 47.65249 | 16.71084 | 36976 ft | 444 kts | 45° |
| 2026-05-04 20:47 | 47.69518 | 16.77749 | 36977 ft | 445 kts | 45° |
| 2026-05-04 20:47 | 47.73781 | 16.84417 | 36978 ft | 445 kts | 45° |
| 2026-05-04 20:48 | 47.78048 | 16.91079 | 36975 ft | 445 kts | 45° |
| 2026-05-04 20:48 | 47.82290 | 16.97710 | 36977 ft | 445 kts | 45° |
| 2026-05-04 20:49 | 47.86552 | 17.04405 | 36981 ft | 445 kts | 45° |
| 2026-05-04 20:49 | 47.90783 | 17.11075 | 36982 ft | 445 kts | 45° |
| 2026-05-04 20:50 | 47.95039 | 17.17804 | 36985 ft | 444 kts | 45° |
| 2026-05-04 20:50 | 47.99258 | 17.24484 | 36989 ft | 444 kts | 45° |
| 2026-05-04 20:51 | 48.03526 | 17.31204 | 36996 ft | 444 kts | 44° |
| 2026-05-04 20:51 | 48.07751 | 17.37867 | 36992 ft | 443 kts | 44° |
| 2026-05-04 20:52 | 48.11999 | 17.44605 | 36990 ft | 443 kts | 45° |
| 2026-05-04 20:52 | 48.16232 | 17.51337 | 36991 ft | 443 kts | 45° |
| 2026-05-04 20:53 | 48.20421 | 17.58021 | 36983 ft | 441 kts | 45° |
| 2026-05-04 20:53 | 48.24599 | 17.64682 | 36950 ft | 434 kts | 44° |
| 2026-05-04 20:54 | 48.28969 | 17.70955 | 36963 ft | 437 kts | 40° |
| 2026-05-04 20:54 | 48.33521 | 17.76979 | 36979 ft | 439 kts | 39° |
| 2026-05-04 20:55 | 48.38100 | 17.83105 | 36991 ft | 440 kts | 40° |
| 2026-05-04 20:55 | 48.42601 | 17.89298 | 37006 ft | 441 kts | 40° |
| 2026-05-04 20:56 | 48.47116 | 17.95591 | 37008 ft | 442 kts | 40° |
| 2026-05-04 20:56 | 48.51640 | 18.01894 | 37020 ft | 441 kts | 40° |
| 2026-05-04 20:57 | 48.56130 | 18.08138 | 37030 ft | 440 kts | 40° |
| 2026-05-04 20:57 | 48.60631 | 18.14402 | 37033 ft | 440 kts | 40° |
| 2026-05-04 20:58 | 48.65140 | 18.20681 | 37037 ft | 439 kts | 40° |
| 2026-05-04 20:58 | 48.69602 | 18.26925 | 37043 ft | 439 kts | 40° |
| 2026-05-04 20:59 | 48.74095 | 18.33241 | 37060 ft | 439 kts | 40° |
| 2026-05-04 20:59 | 48.78548 | 18.39506 | 37047 ft | 439 kts | 40° |
| 2026-05-04 21:00 | 48.80795 | 18.42675 | 36423 ft | 444 kts | 40° |
| 2026-05-04 21:00 | 48.83092 | 18.45912 | 35441 ft | 453 kts | 41° |
| 2026-05-04 21:00 | 48.85378 | 18.49147 | 35164 ft | 445 kts | 41° |
| 2026-05-04 21:00 | 48.87640 | 18.52360 | 34676 ft | 442 kts | 41° |
| 2026-05-04 21:01 | 48.89853 | 18.55505 | 34199 ft | 439 kts | 41° |
| 2026-05-04 21:01 | 48.92086 | 18.58677 | 33671 ft | 437 kts | 41° |
| 2026-05-04 21:01 | 48.93552 | 18.60760 | 33345 ft | 435 kts | 41° |
| 2026-05-04 21:01 | 48.95756 | 18.63894 | 32856 ft | 431 kts | 41° |
| 2026-05-04 21:02 | 48.98646 | 18.68000 | 32207 ft | 426 kts | 41° |
| 2026-05-04 21:02 | 49.00106 | 18.70080 | 31878 ft | 423 kts | 41° |
| 2026-05-04 21:02 | 49.02226 | 18.73108 | 31421 ft | 420 kts | 41° |
| 2026-05-04 21:02 | 49.04359 | 18.76160 | 30956 ft | 417 kts | 41° |
| 2026-05-04 21:03 | 49.06467 | 18.79180 | 30498 ft | 414 kts | 41° |
| 2026-05-04 21:03 | 49.08559 | 18.82181 | 30034 ft | 410 kts | 41° |
| 2026-05-04 21:03 | 49.10604 | 18.85114 | 29576 ft | 406 kts | 41° |
| 2026-05-04 21:03 | 49.12652 | 18.88057 | 29152 ft | 402 kts | 41° |
| 2026-05-04 21:04 | 49.14674 | 18.90966 | 28740 ft | 397 kts | 41° |
| 2026-05-04 21:04 | 49.16681 | 18.93853 | 28321 ft | 394 kts | 41° |
| 2026-05-04 21:04 | 49.18663 | 18.96706 | 27917 ft | 391 kts | 41° |
| 2026-05-04 21:04 | 49.20637 | 18.99555 | 27511 ft | 388 kts | 41° |
| 2026-05-04 21:05 | 49.22596 | 19.02387 | 27108 ft | 385 kts | 41° |
| 2026-05-04 21:05 | 49.24509 | 19.05157 | 26708 ft | 382 kts | 41° |
| 2026-05-04 21:05 | 49.26442 | 19.07954 | 26316 ft | 380 kts | 41° |
| 2026-05-04 21:05 | 49.28352 | 19.10716 | 25904 ft | 377 kts | 41° |
| 2026-05-04 21:06 | 49.30258 | 19.13478 | 25489 ft | 375 kts | 41° |
| 2026-05-04 21:06 | 49.32147 | 19.16225 | 25075 ft | 373 kts | 42° |
| 2026-05-04 21:06 | 49.34029 | 19.18970 | 24646 ft | 372 kts | 41° |
| 2026-05-04 21:06 | 49.35879 | 19.21668 | 24224 ft | 370 kts | 41° |
| 2026-05-04 21:07 | 49.37752 | 19.24397 | 23793 ft | 369 kts | 42° |
| 2026-05-04 21:07 | 49.39616 | 19.27115 | 23313 ft | 368 kts | 41° |
| 2026-05-04 21:07 | 49.41464 | 19.29811 | 22872 ft | 365 kts | 43° |
| 2026-05-04 21:07 | 49.43285 | 19.32473 | 22428 ft | 363 kts | 42° |
| 2026-05-04 21:08 | 49.45110 | 19.35148 | 21995 ft | 361 kts | 42° |
| 2026-05-04 21:08 | 49.46926 | 19.37813 | 21559 ft | 359 kts | 42° |
| 2026-05-04 21:08 | 49.48735 | 19.40467 | 21109 ft | 358 kts | 43° |
| 2026-05-04 21:08 | 49.50530 | 19.43107 | 20687 ft | 356 kts | 43° |
| 2026-05-04 21:09 | 49.52317 | 19.45738 | 20254 ft | 355 kts | 43° |
| 2026-05-04 21:09 | 49.54099 | 19.48366 | 19828 ft | 354 kts | 43° |
| 2026-05-04 21:09 | 49.55885 | 19.51000 | 19385 ft | 354 kts | 43° |
| 2026-05-04 21:09 | 49.57639 | 19.53591 | 18963 ft | 354 kts | 43° |
| 2026-05-04 21:10 | 49.59419 | 19.56222 | 18524 ft | 354 kts | 43° |
| 2026-05-04 21:10 | 49.61198 | 19.58851 | 18059 ft | 354 kts | 43° |
| 2026-05-04 21:10 | 49.62977 | 19.61481 | 17616 ft | 352 kts | 43° |
| 2026-05-04 21:10 | 49.64743 | 19.64092 | 17188 ft | 350 kts | 43° |
| 2026-05-04 21:11 | 49.66499 | 19.66694 | 16746 ft | 349 kts | 43° |
| 2026-05-04 21:11 | 49.68253 | 19.69292 | 16316 ft | 348 kts | 43° |
| 2026-05-04 21:11 | 49.69978 | 19.71853 | 15895 ft | 347 kts | 43° |
| 2026-05-04 21:11 | 49.71722 | 19.74446 | 15461 ft | 347 kts | 43° |
| 2026-05-04 21:12 | 49.73461 | 19.77035 | 15033 ft | 347 kts | 43° |
| 2026-05-04 21:12 | 49.74681 | 19.78851 | 14733 ft | 347 kts | 43° |
| 2026-05-04 21:12 | 49.76418 | 19.81435 | 14309 ft | 346 kts | 43° |
| 2026-05-04 21:12 | 49.78150 | 19.84018 | 13884 ft | 345 kts | 43° |
| 2026-05-04 21:13 | 49.79857 | 19.86572 | 13434 ft | 345 kts | 44° |
| 2026-05-04 21:13 | 49.81577 | 19.89156 | 12995 ft | 343 kts | 44° |
| 2026-05-04 21:13 | 49.83284 | 19.91725 | 12570 ft | 341 kts | 44° |
| 2026-05-04 21:13 | 49.84987 | 19.94283 | 12150 ft | 340 kts | 44° |
| 2026-05-04 21:14 | 49.86692 | 19.96836 | 11727 ft | 339 kts | 44° |
| 2026-05-04 21:14 | 49.88387 | 19.99371 | 11302 ft | 338 kts | 44° |
| 2026-05-04 21:14 | 49.90055 | 20.01876 | 10883 ft | 337 kts | 44° |
| 2026-05-04 21:14 | 49.91735 | 20.04407 | 10595 ft | 331 kts | 44° |
| 2026-05-04 21:15 | 49.93358 | 20.06856 | 10420 ft | 318 kts | 44° |
| 2026-05-04 21:15 | 49.94928 | 20.09225 | 9928 ft | 314 kts | 44° |
| 2026-05-04 21:15 | 49.96472 | 20.11554 | 9643 ft | 310 kts | 44° |
| 2026-05-04 21:15 | 49.98003 | 20.13869 | 9395 ft | 305 kts | 44° |
| 2026-05-04 21:16 | 49.99518 | 20.16165 | 8759 ft | 303 kts | 44° |
| 2026-05-04 21:16 | 50.01023 | 20.18448 | 8259 ft | 296 kts | 44° |
| 2026-05-04 21:16 | 50.02447 | 20.20607 | 8122 ft | 276 kts | 44° |
| 2026-05-04 21:16 | 50.03871 | 20.22521 | 7807 ft | 265 kts | 30° |
| 2026-05-04 21:17 | 50.05513 | 20.23598 | 7677 ft | 257 kts | 10° |
| 2026-05-04 21:17 | 50.07297 | 20.23843 | 7236 ft | 258 kts | 351° |
| 2026-05-04 21:17 | 50.09037 | 20.23321 | 6772 ft | 253 kts | 345° |
| 2026-05-04 21:17 | 50.10756 | 20.22733 | 6273 ft | 251 kts | 342° |
| 2026-05-04 21:18 | 50.12251 | 20.21524 | 5803 ft | 239 kts | 311° |
| 2026-05-04 21:18 | 50.13069 | 20.19371 | 5310 ft | 229 kts | 280° |
| 2026-05-04 21:18 | 50.13066 | 20.17006 | 4984 ft | 216 kts | 256° |
| 2026-05-04 21:18 | 50.12759 | 20.14802 | 4838 ft | 199 kts | 257° |
| 2026-05-04 21:19 | 50.12484 | 20.12782 | 4733 ft | 184 kts | 257° |
| 2026-05-04 21:19 | 50.12222 | 20.10850 | 4647 ft | 182 kts | 256° |
| 2026-05-04 21:19 | 50.11963 | 20.08940 | 4572 ft | 175 kts | 256° |
| 2026-05-04 21:19 | 50.11717 | 20.07128 | 4344 ft | 169 kts | 256° |
| 2026-05-04 21:20 | 50.11478 | 20.05383 | 4099 ft | 165 kts | 256° |
| 2026-05-04 21:20 | 50.11243 | 20.03662 | 3868 ft | 160 kts | 256° |
| 2026-05-04 21:20 | 50.11014 | 20.01980 | 3651 ft | 156 kts | 256° |
| 2026-05-04 21:20 | 50.10796 | 20.00383 | 3441 ft | 145 kts | 256° |
| 2026-05-04 21:21 | 50.10592 | 19.98882 | 3248 ft | 138 kts | 256° |
| 2026-05-04 21:21 | 50.10394 | 19.97438 | 3059 ft | 135 kts | 255° |
| 2026-05-04 21:21 | 50.10195 | 19.96013 | 2860 ft | 135 kts | 255° |
| 2026-05-04 21:21 | 50.09999 | 19.94594 | 2691 ft | 134 kts | 255° |
| 2026-05-04 21:22 | 50.09804 | 19.93180 | 2506 ft | 133 kts | 255° |
| 2026-05-04 21:22 | 50.09611 | 19.91780 | 2341 ft | 133 kts | 255° |
| 2026-05-04 21:22 | 50.09420 | 19.90396 | 2150 ft | 133 kts | 255° |
| 2026-05-04 21:22 | 50.09227 | 19.88991 | 1981 ft | 132 kts | 256° |
| 2026-05-04 21:23 | 50.09032 | 19.87582 | 1789 ft | 135 kts | 256° |
| 2026-05-04 21:23 | 50.08836 | 19.86153 | 1618 ft | 135 kts | 255° |
| 2026-05-04 21:23 | 50.08634 | 19.84725 | 1462 ft | 134 kts | 256° |
| 2026-05-04 21:23 | 50.08441 | 19.83284 | 1277 ft | 137 kts | 258° |
| 2026-05-04 21:24 | 50.08235 | 19.81838 | 1084 ft | 137 kts | 257° |
| 2026-05-04 21:24 | 50.08038 | 19.80389 | 895 ft | 136 kts | 257° |
| 2026-05-04 21:24 | 50.07838 | 19.78992 | 802 ft | 119 kts | 258° |
| 2026-05-04 21:24 | 50.07703 | 19.77989 | 798 ft | 70 kts | 258° |
| 2026-05-04 21:25 | 50.07635 | 19.77503 | 799 ft | 30 kts | 258° |
| 2026-05-04 21:25 | 50.07591 | 19.77182 | 802 ft | 30 kts | 258° |
| 2026-05-04 21:25 | 50.07548 | 19.76867 | 802 ft | 20 kts | 256° |
| 2026-05-04 21:25 | 50.07469 | 19.76850 | 801 ft | 15 kts | 166° |
| 2026-05-04 21:26 | 50.07356 | 19.76890 | 800 ft | 18 kts | 167° |
| 2026-05-04 21:26 | 50.07314 | 19.77013 | 800 ft | 16 kts | 80° |
| 2026-05-04 21:26 | 50.07340 | 19.77196 | 800 ft | 19 kts | 78° |
| 2026-05-04 21:26 | 50.07370 | 19.77412 | 800 ft | 22 kts | 77° |
| 2026-05-04 21:27 | 50.07404 | 19.77660 | 800 ft | 25 kts | 77° |
| 2026-05-04 21:27 | 50.07443 | 19.77936 | 800 ft | 27 kts | 77° |
| 2026-05-04 21:27 | 50.07485 | 19.78237 | 800 ft | 30 kts | 77° |
| 2026-05-04 21:27 | 50.07525 | 19.78524 | 800 ft | 27 kts | 78° |
| 2026-05-04 21:28 | 50.07563 | 19.78797 | 800 ft | 26 kts | 78° |
| 2026-05-04 21:28 | 50.07605 | 19.79082 | 800 ft | 28 kts | 76° |
| 2026-05-04 21:28 | 50.07645 | 19.79386 | 800 ft | 26 kts | 78° |
| 2026-05-04 21:28 | 50.07676 | 19.79598 | 800 ft | 18 kts | 77° |
| 2026-05-04 21:29 | 50.07704 | 19.79803 | 800 ft | 16 kts | 79° |
| 2026-05-04 21:29 | 50.07637 | 19.79891 | 800 ft | 12 kts | 168° |
| 2026-05-04 21:29 | 50.07542 | 19.79922 | 800 ft | 16 kts | 168° |
| 2026-05-04 21:29 | 50.07435 | 19.79958 | 800 ft | 17 kts | 167° |
| 2026-05-04 21:30 | 50.07401 | 19.80065 | 800 ft | 13 kts | 95° |
| 2026-05-04 21:30 | 50.07336 | 19.80104 | 800 ft | 9 kts | 169° |
| 2026-05-04 21:30 | 50.07318 | 19.80110 | 800 ft | 0 kts | 168° |